Time;durP1;ratioP1;P1;durP2;ratioP2;P2;SDS_P1;SDS_P2;PMS_P1;PMS_P2;Temp;Humidity;BMP_temperature;BMP_pressure;BME280_temperature;BME280_humidity;BME280_pressure;Samples;Min_cycle;Max_cycle;Signal;HPM_P1;HPM_P2
2023/08/08 00:01:10;;;;;;;;;3.33;3.33;;;;;19.73;51.88;101615.50;5096995;27;69046;-51
2023/08/08 00:03:36;;;;;;;;;3.33;3.33;;;;;19.74;52.24;101624.47;5083046;27;65597;-49
2023/08/08 00:06:01;;;;;;;;;5.00;4.00;;;;;19.72;51.99;101621.00;5099357;27;45461;-49
2023/08/08 00:08:26;;;;;;;;;6.00;3.00;;;;;19.67;52.69;101624.03;5090763;27;45462;-50
2023/08/08 00:10:52;;;;;;;;;4.00;4.00;;;;;19.64;52.42;101613.50;5094571;27;66611;-50
2023/08/08 00:13:17;;;;;;;;;5.00;5.00;;;;;19.61;52.14;101613.75;5098041;27;71706;-52
2023/08/08 00:15:43;;;;;;;;;7.00;5.67;;;;;19.57;52.61;101609.53;5099752;27;45648;-51
2023/08/08 00:18:08;;;;;;;;;3.00;3.00;;;;;19.52;52.69;101612.59;5087233;27;45385;-48
2023/08/08 00:20:33;;;;;;;;;8.00;6.00;;;;;19.48;52.60;101608.41;5087699;27;67312;-52
2023/08/08 00:22:59;;;;;;;;;3.67;3.67;;;;;19.46;53.14;101613.03;5074206;27;46317;-50
2023/08/08 00:25:24;;;;;;;;;4.00;4.00;;;;;19.41;53.30;101605.31;5097902;27;45489;-50
2023/08/08 00:27:50;;;;;;;;;4.00;4.00;;;;;19.38;53.05;101608.22;5096366;27;52423;-49
2023/08/08 00:30:15;;;;;;;;;5.00;5.00;;;;;19.34;53.15;101607.56;5088159;27;45403;-51
2023/08/08 00:32:41;;;;;;;;;4.33;3.00;;;;;19.31;53.49;101605.13;5098687;27;45745;-50
2023/08/08 00:35:07;;;;;;;;;4.00;3.00;;;;;19.30;54.05;101613.34;5088024;27;46137;-51
2023/08/08 00:37:33;;;;;;;;;3.33;3.33;;;;;19.26;53.64;101599.22;5073468;28;45456;-48
2023/08/08 00:39:58;;;;;;;;;3.33;3.33;;;;;19.24;54.03;101603.00;5080482;27;45429;-47
2023/08/08 00:42:23;;;;;;;;;3.33;3.00;;;;;19.21;53.69;101597.84;5094367;27;73397;-48
2023/08/08 00:44:49;;;;;;;;;3.00;3.00;;;;;19.16;54.04;101590.97;5094415;27;71848;-50
2023/08/08 00:47:14;;;;;;;;;4.67;3.67;;;;;19.13;54.38;101593.84;5094457;27;64764;-49
2023/08/08 00:49:39;;;;;;;;;7.33;4.33;;;;;19.09;54.38;101594.22;5080758;27;64586;-48
2023/08/08 00:52:06;;;;;;;;;4.00;4.00;;;;;19.03;54.74;101583.88;5093452;27;61991;-48
2023/08/08 00:54:32;;;;;;;;;4.00;4.00;;;;;18.97;55.40;101585.19;5082574;27;45921;-48
2023/08/08 00:56:57;;;;;;;;;5.00;3.00;;;;;18.92;55.03;101580.13;5091725;27;60482;-49
2023/08/08 00:59:23;;;;;;;;;4.00;2.00;;;;;18.88;55.21;101575.91;5093568;27;66256;-48
2023/08/08 01:01:49;;;;;;;;;3.00;3.00;;;;;18.87;55.42;101578.72;5087966;27;70234;-47
2023/08/08 01:04:14;;;;;;;;;3.33;3.33;;;;;18.86;55.86;101583.22;5088322;27;65853;-48
2023/08/08 01:06:43;;;;;;;;;5.67;4.00;;;;;18.86;56.06;101575.16;5099139;27;46441;-48
2023/08/08 01:09:20;;;;;;;;;4.25;3.00;;;;;18.85;55.74;101576.13;5095257;27;45435;-48
2023/08/08 01:11:48;;;;;;;;;3.00;3.00;;;;;18.84;56.19;101579.81;5080770;27;47091;-47
2023/08/08 01:14:14;;;;;;;;;3.50;3.50;;;;;18.84;55.82;101577.97;5091186;27;45548;-49
2023/08/08 01:16:39;;;;;;;;;3.00;1.75;;;;;18.82;56.22;101574.50;5074244;27;45391;-48
2023/08/08 01:19:06;;;;;;;;;3.00;3.00;;;;;18.81;56.34;101575.50;5065581;27;61876;-50
2023/08/08 01:21:33;;;;;;;;;2.00;2.00;;;;;18.82;55.90;101573.66;5067367;28;67959;-50
2023/08/08 01:24:16;;;;;;;;;2.33;2.33;;;;;18.84;56.02;101580.66;5073172;28;45405;-48
2023/08/08 01:26:41;;;;;;;;;3.33;2.67;;;;;18.86;56.51;101580.53;5087640;27;45386;-48
2023/08/08 01:29:06;;;;;;;;;6.00;3.00;;;;;18.88;56.35;101580.41;5091719;27;45551;-48
2023/08/08 01:31:32;;;;;;;;;1.33;1.33;;;;;18.87;56.70;101582.25;5097595;27;75123;-48
2023/08/08 01:33:57;;;;;;;;;2.00;2.00;;;;;18.88;56.51;101580.41;5087973;27;68661;-48
2023/08/08 01:36:39;;;;;;;;;1.00;1.00;;;;;18.88;56.58;101581.31;5091897;27;68609;-47
2023/08/08 01:39:10;;;;;;;;;3.00;2.00;;;;;18.91;56.61;101572.16;5080110;27;45402;-48
2023/08/08 01:41:38;;;;;;;;;3.00;2.00;;;;;18.93;56.22;101575.59;5080333;27;45354;-48
2023/08/08 01:44:03;;;;;;;;;2.33;2.33;;;;;18.94;56.45;101577.31;5092515;27;70409;-48
2023/08/08 01:46:29;;;;;;;;;5.67;2.67;;;;;18.92;56.43;101574.75;5097646;27;53926;-50
2023/08/08 01:48:54;;;;;;;;;4.00;2.00;;;;;18.91;56.23;101572.16;5090273;27;45763;-49
2023/08/08 01:51:20;;;;;;;;;4.67;3.00;;;;;18.91;56.77;101575.72;5063757;27;45627;-49
2023/08/08 01:53:45;;;;;;;;;1.00;1.00;;;;;18.91;56.10;101582.94;5075676;27;74093;-48
2023/08/08 01:56:10;;;;;;;;;4.00;1.00;;;;;18.87;56.11;101584.13;5084234;27;45499;-48
2023/08/08 01:58:36;;;;;;;;;4.00;3.00;;;;;18.86;56.41;101577.84;5092653;27;69319;-49
2023/08/08 02:01:01;;;;;;;;;3.00;3.00;;;;;18.87;56.75;101571.47;5088505;27;46515;-48
2023/08/08 02:03:26;;;;;;;;;2.33;2.33;;;;;18.88;56.36;101575.03;5085225;27;69550;-48
2023/08/08 02:05:52;;;;;;;;;4.00;3.00;;;;;18.86;56.76;101577.84;5090233;27;68897;-49
2023/08/08 02:08:18;;;;;;;;;2.00;2.00;;;;;18.83;56.33;101568.16;5094616;27;61002;-48
2023/08/08 02:10:43;;;;;;;;;3.00;2.00;;;;;18.80;56.74;101562.16;5098360;27;46225;-47
2023/08/08 02:13:08;;;;;;;;;3.33;3.00;;;;;18.77;56.73;101555.16;5095825;27;68680;-48
2023/08/08 02:15:34;;;;;;;;;3.00;3.00;;;;;18.75;56.84;101549.00;5085807;27;68336;-49
2023/08/08 02:18:00;;;;;;;;;2.67;2.00;;;;;18.72;57.04;101551.03;5098121;27;67106;-48
2023/08/08 02:20:26;;;;;;;;;3.00;2.00;;;;;18.66;57.27;101550.50;5099203;27;47111;-49
2023/08/08 02:22:51;;;;;;;;;4.00;2.67;;;;;18.63;57.04;101550.75;5089465;27;65436;-51
2023/08/08 02:25:16;;;;;;;;;3.33;2.33;;;;;18.60;57.64;101556.34;5096760;27;45342;-49
2023/08/08 02:27:42;;;;;;;;;4.25;2.25;;;;;18.60;57.73;101555.50;5097029;27;45425;-49
2023/08/08 02:30:07;;;;;;;;;3.00;3.00;;;;;18.57;57.95;101550.34;5087010;27;46287;-49
2023/08/08 02:32:33;;;;;;;;;2.33;2.33;;;;;18.55;58.05;101536.97;5094468;27;45692;-49
2023/08/08 02:34:58;;;;;;;;;2.00;2.00;;;;;18.55;58.24;101536.09;5088532;27;45353;-49
2023/08/08 02:37:23;;;;;;;;;3.33;3.00;;;;;18.53;58.25;101536.22;5093972;27;45378;-48
2023/08/08 02:39:49;;;;;;;;;2.00;2.00;;;;;18.53;58.18;101536.22;5091612;27;73961;-50
2023/08/08 02:42:14;;;;;;;;;2.00;2.00;;;;;18.54;58.32;101531.69;5095170;27;45377;-48
2023/08/08 02:44:39;;;;;;;;;3.00;2.67;;;;;18.52;58.76;101537.19;5089000;27;67823;-49
2023/08/08 02:47:05;;;;;;;;;3.00;3.00;;;;;18.48;58.53;101539.22;5087983;27;69086;-51
2023/08/08 02:49:30;;;;;;;;;3.00;3.00;;;;;18.43;58.84;101535.16;5099418;27;45849;-49
2023/08/08 02:51:55;;;;;;;;;2.67;2.67;;;;;18.37;58.88;101531.09;5085800;27;53095;-49
2023/08/08 02:54:21;;;;;;;;;3.00;3.00;;;;;18.32;59.10;101539.47;5098228;27;45895;-50
2023/08/08 02:56:46;;;;;;;;;3.00;2.00;;;;;18.28;59.38;101546.06;5080887;27;66757;-51
2023/08/08 02:59:11;;;;;;;;;3.33;3.33;;;;;18.27;59.53;101557.78;5091536;27;55984;-47
2023/08/08 03:01:39;;;;;;;;;3.00;3.00;;;;;18.26;59.80;101550.69;5094911;27;70106;-48
2023/08/08 03:04:05;;;;;;;;;4.00;2.67;;;;;18.29;59.72;101557.66;5100542;27;45333;-48
2023/08/08 03:06:30;;;;;;;;;4.67;3.00;;;;;18.29;60.21;101557.66;5093217;27;45321;-49
2023/08/08 03:08:55;;;;;;;;;3.67;3.67;;;;;18.29;59.97;101552.28;5078526;27;64440;-47
2023/08/08 03:11:21;;;;;;;;;3.67;3.00;;;;;18.28;60.21;101551.44;5084899;27;67936;-48
2023/08/08 03:13:46;;;;;;;;;3.00;3.00;;;;;18.29;60.32;101558.56;5084153;27;45460;-48
2023/08/08 03:16:11;;;;;;;;;3.67;3.67;;;;;18.28;60.37;101554.13;5092239;27;45438;-50
2023/08/08 03:18:37;;;;;;;;;3.33;2.33;;;;;18.29;60.71;101549.59;5096131;27;53634;-48
2023/08/08 03:21:02;;;;;;;;;3.67;2.33;;;;;18.28;60.37;101550.59;5086897;27;64872;-47
2023/08/08 03:23:28;;;;;;;;;6.67;3.33;;;;;18.26;60.66;101545.28;5070024;28;55738;-48
2023/08/08 03:25:53;;;;;;;;;3.00;3.00;;;;;18.24;60.63;101540.97;5094702;27;46460;-49
2023/08/08 03:28:18;;;;;;;;;3.00;3.00;;;;;18.22;60.69;101537.56;5077874;27;46228;-54
2023/08/08 03:30:43;;;;;;;;;2.00;2.00;;;;;18.20;61.02;101551.13;5099146;27;69795;-48
2023/08/08 03:33:09;;;;;;;;;4.00;3.00;;;;;18.21;60.93;101563.59;5099313;27;66276;-48
2023/08/08 03:35:34;;;;;;;;;2.33;2.33;;;;;18.18;60.58;101559.28;5095878;27;45408;-48
2023/08/08 03:38:01;;;;;;;;;3.00;3.00;;;;;18.16;60.69;101557.66;5085978;27;46128;-47
2023/08/08 03:40:26;;;;;;;;;3.67;3.67;;;;;18.14;60.93;101556.94;5083852;27;45470;-50
2023/08/08 03:42:51;;;;;;;;;4.33;4.33;;;;;18.10;60.83;101556.28;5099163;27;66929;-51
2023/08/08 03:45:17;;;;;;;;;2.67;2.67;;;;;18.08;61.04;101554.66;5094990;27;60014;-50
2023/08/08 03:47:42;;;;;;;;;3.00;3.00;;;;;18.04;61.39;101566.63;5094911;27;46084;-47
2023/08/08 03:50:08;;;;;;;;;3.00;3.00;;;;;17.99;61.23;101570.50;5094480;27;66672;-47
2023/08/08 03:52:35;;;;;;;;;3.00;3.00;;;;;17.95;61.43;101565.41;5088425;27;45560;-49
2023/08/08 03:55:01;;;;;;;;;4.00;4.00;;;;;17.93;61.54;101557.47;5087177;27;45343;-50
2023/08/08 03:57:26;;;;;;;;;1.00;1.00;;;;;17.92;61.83;101565.63;5088685;27;45453;-49
2023/08/08 03:59:51;;;;;;;;;3.00;3.00;;;;;17.89;61.74;101558.63;5089063;27;63474;-48
2023/08/08 04:02:17;;;;;;;;;2.00;2.00;;;;;17.88;62.02;101562.25;5086343;27;45682;-52
2023/08/08 04:04:42;;;;;;;;;3.00;3.00;;;;;17.86;62.08;101556.16;5097622;27;45433;-50
2023/08/08 04:07:07;;;;;;;;;3.33;2.00;;;;;17.85;62.36;101562.50;5088010;27;71949;-49
2023/08/08 04:09:33;;;;;;;;;5.00;3.00;;;;;17.82;62.16;101560.00;5089218;27;45486;-52
2023/08/08 04:11:58;;;;;;;;;4.00;3.00;;;;;17.82;62.42;101555.50;5072529;27;65229;-50
2023/08/08 04:14:23;;;;;;;;;2.00;2.00;;;;;17.82;62.54;101554.59;5094786;27;69760;-50
2023/08/08 04:16:49;;;;;;;;;2.33;2.33;;;;;17.83;61.70;101564.41;5096186;27;64394;-48
2023/08/08 04:19:14;;;;;;;;;4.00;2.33;;;;;17.82;62.36;101560.00;5078549;27;45544;-50
2023/08/08 04:21:39;;;;;;;;;2.67;2.67;;;;;17.82;62.69;101554.59;5098411;27;64511;-49
2023/08/08 04:24:07;;;;;;;;;3.33;3.00;;;;;17.82;62.36;101555.50;5095114;27;62706;-51
2023/08/08 04:26:33;;;;;;;;;2.00;2.00;;;;;17.84;61.93;101560.75;5079115;27;47335;-50
2023/08/08 04:28:58;;;;;;;;;6.00;3.00;;;;;17.86;62.63;101559.69;5073493;27;45535;-49
2023/08/08 04:31:26;;;;;;;;;2.00;2.00;;;;;17.89;62.27;101555.06;5095161;27;67440;-49
2023/08/08 04:33:55;;;;;;;;;3.00;3.00;;;;;17.89;62.45;101555.91;5092797;27;45558;-48
2023/08/08 04:36:21;;;;;;;;;5.33;3.00;;;;;17.90;62.68;101554.09;5097829;27;46492;-50
2023/08/08 04:38:46;;;;;;;;;2.33;2.33;;;;;17.88;62.85;101561.41;5078118;27;45365;-48
2023/08/08 04:41:11;;;;;;;;;7.00;3.00;;;;;17.88;62.46;101556.03;5093785;27;63828;-49
2023/08/08 04:43:37;;;;;;;;;4.33;3.00;;;;;17.87;63.02;101552.47;5093968;27;53587;-51
2023/08/08 04:46:02;;;;;;;;;2.00;2.00;;;;;17.90;62.59;101570.22;5094912;27;72349;-48
2023/08/08 04:48:27;;;;;;;;;4.00;4.00;;;;;17.93;62.68;101562.84;5091441;27;60091;-49
2023/08/08 04:50:53;;;;;;;;;3.00;3.00;;;;;18.00;62.62;101565.97;5094248;27;45490;-49
2023/08/08 04:53:18;;;;;;;;;3.33;2.00;;;;;18.06;62.35;101567.41;5091511;27;65875;-50
2023/08/08 04:55:43;;;;;;;;;4.00;4.00;;;;;18.11;62.44;101557.16;5088493;27;72540;-48
2023/08/08 04:58:09;;;;;;;;;3.00;3.00;;;;;18.13;62.81;101557.91;5067449;27;65495;-50
2023/08/08 05:00:35;;;;;;;;;4.00;3.00;;;;;18.13;62.47;101557.91;5064062;28;64862;-49
2023/08/08 05:03:00;;;;;;;;;5.00;3.00;;;;;18.15;62.10;101555.97;5067306;27;45439;-49
2023/08/08 05:05:25;;;;;;;;;3.00;1.00;;;;;18.18;62.28;101553.06;5098437;27;46153;-50
2023/08/08 05:07:51;;;;;;;;;6.67;2.67;;;;;18.21;62.35;101544.75;5092663;27;71249;-48
2023/08/08 05:10:16;;;;;;;;;5.00;3.00;;;;;18.25;62.59;101545.41;5088911;27;47670;-49
2023/08/08 05:12:41;;;;;;;;;4.33;3.00;;;;;18.27;62.82;101546.16;5092499;27;45557;-49
2023/08/08 05:15:07;;;;;;;;;2.00;2.00;;;;;18.28;62.08;101540.66;5076722;28;47908;-48
2023/08/08 05:17:33;;;;;;;;;5.00;5.00;;;;;18.29;62.20;101546.91;5071536;27;45475;-52
2023/08/08 05:19:58;;;;;;;;;5.33;5.33;;;;;18.25;62.67;101540.91;5073080;27;55398;-48
2023/08/08 05:22:23;;;;;;;;;3.00;3.00;;;;;18.22;62.09;101540.25;5095173;27;67229;-49
2023/08/08 05:24:49;;;;;;;;;2.00;2.00;;;;;18.18;62.69;101542.28;5065335;28;48626;-47
2023/08/08 05:27:14;;;;;;;;;2.00;2.00;;;;;18.15;62.54;101537.97;5095433;27;47126;-51
2023/08/08 05:29:40;;;;;;;;;2.33;2.33;;;;;18.19;62.45;101544.03;5090879;27;63488;-49
2023/08/08 05:32:07;;;;;;;;;2.67;2.33;;;;;18.25;61.95;101548.97;5090351;27;45401;-50
2023/08/08 05:34:33;;;;;;;;;5.00;3.00;;;;;18.33;62.23;101553.81;5090029;27;45433;-48
2023/08/08 05:36:58;;;;;;;;;3.33;2.33;;;;;18.42;62.24;101546.91;5084392;27;45829;-52
2023/08/08 05:39:23;;;;;;;;;3.00;3.00;;;;;18.52;62.36;101545.25;5058811;28;45323;-50
2023/08/08 05:41:49;;;;;;;;;2.00;2.00;;;;;18.66;61.99;101546.97;5091063;27;45532;-48
2023/08/08 05:44:14;;;;;;;;;3.33;3.33;;;;;18.81;61.53;101553.94;5084140;27;59932;-49
2023/08/08 05:46:40;;;;;;;;;4.00;4.00;;;;;18.96;61.54;101557.38;5098128;27;45517;-51
2023/08/08 05:49:06;;;;;;;;;2.33;2.33;;;;;19.10;61.05;101547.38;5086695;27;62900;-53
2023/08/08 05:51:32;;;;;;;;;4.00;2.33;;;;;19.19;61.33;101557.50;5090134;27;45310;-51
2023/08/08 05:53:57;;;;;;;;;3.33;1.67;;;;;19.28;60.80;101559.50;5085930;27;45606;-51
2023/08/08 05:56:22;;;;;;;;;2.00;2.00;;;;;19.35;60.18;101557.22;5098560;27;45441;-50
2023/08/08 05:58:48;;;;;;;;;2.00;2.00;;;;;19.44;60.65;101564.59;5098315;27;45449;-49
2023/08/08 06:01:13;;;;;;;;;2.67;2.67;;;;;19.54;59.99;101567.44;5096665;27;61714;-48
2023/08/08 06:03:38;;;;;;;;;2.00;2.00;;;;;19.66;59.80;101569.22;5084428;27;45399;-48
2023/08/08 06:06:04;;;;;;;;;2.00;2.00;;;;;19.76;59.12;101565.81;5075613;27;69796;-49
2023/08/08 06:08:29;;;;;;;;;3.67;3.00;;;;;19.80;58.93;101567.28;5081619;27;45491;-51
2023/08/08 06:10:55;;;;;;;;;5.00;3.00;;;;;19.90;59.60;101570.19;5090312;27;45647;-49
2023/08/08 06:13:20;;;;;;;;;2.00;2.00;;;;;20.00;59.00;101574.75;5087457;27;50535;-49
2023/08/08 06:15:45;;;;;;;;;1.33;1.33;;;;;19.97;58.53;101577.69;5093523;27;45352;-49
2023/08/08 06:18:11;;;;;;;;;3.00;3.00;;;;;20.01;58.43;101581.00;5085198;27;66741;-49
2023/08/08 06:20:36;;;;;;;;;4.00;3.00;;;;;20.05;58.51;101582.50;5088265;27;66829;-49
2023/08/08 06:23:01;;;;;;;;;2.00;2.00;;;;;20.05;58.04;101593.31;5079821;27;47147;-49
2023/08/08 06:25:28;;;;;;;;;3.00;1.00;;;;;19.97;58.28;101583.09;5085282;27;61500;-49
2023/08/08 06:27:53;;;;;;;;;2.00;2.00;;;;;19.90;57.70;101579.13;5096168;27;45509;-50
2023/08/08 06:30:18;;;;;;;;;1.67;1.67;;;;;19.87;58.11;101582.09;5083293;27;45284;-50
2023/08/08 06:32:44;;;;;;;;;3.00;3.00;;;;;19.79;58.03;101574.53;5094238;27;54144;-47
2023/08/08 06:35:09;;;;;;;;;3.00;2.00;;;;;19.81;58.40;101583.41;5091238;27;66442;-47
2023/08/08 06:37:35;;;;;;;;;2.00;2.00;;;;;19.88;58.00;101591.03;5094636;27;45360;-48
2023/08/08 06:40:01;;;;;;;;;1.67;1.67;;;;;19.99;57.48;101586.53;5078353;27;50456;-47
2023/08/08 06:42:26;;;;;;;;;3.33;2.00;;;;;20.17;57.61;101591.47;5090652;27;47399;-49
2023/08/08 06:44:51;;;;;;;;;1.00;1.00;;;;;20.36;56.56;101588.16;5084523;27;66611;-47
2023/08/08 06:47:17;;;;;;;;;0.00;0.00;;;;;20.65;56.59;101587.72;5092638;27;45643;-48
2023/08/08 06:49:42;;;;;;;;;1.00;1.00;;;;;20.67;55.75;101588.44;5089596;27;66779;-48
2023/08/08 06:52:08;;;;;;;;;3.00;2.00;;;;;20.53;55.36;101578.72;5088416;27;70336;-50
2023/08/08 06:54:33;;;;;;;;;3.75;1.50;;;;;20.36;55.23;101580.06;5090441;27;64486;-48
2023/08/08 06:56:59;;;;;;;;;2.00;2.00;;;;;20.31;55.92;101579.56;5078316;27;46141;-46
2023/08/08 06:59:26;;;;;;;;;3.00;2.00;;;;;20.58;56.00;101572.97;5092628;27;45532;-46
2023/08/08 07:01:51;;;;;;;;;2.00;1.00;;;;;21.45;55.26;101572.19;5089940;27;46228;-46
2023/08/08 07:04:17;;;;;;;;;4.00;2.00;;;;;22.90;52.89;101567.75;5088511;27;45493;-46
2023/08/08 07:06:44;;;;;;;;;2.00;2.00;;;;;24.05;47.94;101568.97;5088557;27;45645;-48
2023/08/08 07:09:14;;;;;;;;;2.33;1.67;;;;;24.87;47.91;101573.81;5079064;27;45524;-46
2023/08/08 07:11:39;;;;;;;;;2.00;2.00;;;;;24.44;47.09;101565.25;5089664;27;46585;-47
2023/08/08 07:14:05;;;;;;;;;2.67;2.67;;;;;23.78;47.32;101564.28;5090823;27;45485;-47
2023/08/08 07:16:30;;;;;;;;;1.75;1.75;;;;;23.35;48.18;101568.28;5093803;27;66897;-46
2023/08/08 07:18:55;;;;;;;;;2.75;2.00;;;;;23.09;48.37;101566.94;5089887;27;68638;-47
2023/08/08 07:21:21;;;;;;;;;2.75;2.00;;;;;23.11;48.57;101567.69;5093150;27;53742;-45
2023/08/08 07:23:46;;;;;;;;;4.25;3.00;;;;;23.12;48.86;101569.38;5096067;27;70169;-49
2023/08/08 07:26:12;;;;;;;;;3.75;1.00;;;;;23.29;47.63;101558.84;5090515;27;66572;-47
2023/08/08 07:28:37;;;;;;;;;1.00;1.00;;;;;24.01;47.45;101548.50;5066725;27;45587;-47
2023/08/08 07:31:03;;;;;;;;;4.25;2.00;;;;;26.59;44.80;101549.00;5091789;27;46234;-46
2023/08/08 07:33:28;;;;;;;;;2.00;2.00;;;;;29.81;42.22;101543.59;5087872;27;54290;-47
2023/08/08 07:35:53;;;;;;;;;3.00;3.00;;;;;32.87;38.13;101552.56;5089943;27;45480;-47
2023/08/08 07:38:19;;;;;;;;;2.50;2.50;;;;;34.96;35.35;101552.19;5083473;27;68363;-49
2023/08/08 07:40:45;;;;;;;;;6.00;3.25;;;;;36.82;30.64;101555.34;5082094;27;54215;-49
2023/08/08 07:43:11;;;;;;;;;1.50;1.50;;;;;38.43;29.86;101552.69;5098310;27;45380;-49
2023/08/08 07:45:37;;;;;;;;;1.00;1.00;;;;;39.76;25.97;101556.25;5091528;27;45454;-47
2023/08/08 07:48:03;;;;;;;;;3.50;2.00;;;;;40.74;26.63;101568.72;5086675;27;45713;-49
2023/08/08 07:50:28;;;;;;;;;1.75;1.75;;;;;41.57;22.60;101560.06;5087832;27;45738;-47
2023/08/08 07:52:53;;;;;;;;;2.00;1.00;;;;;41.53;23.49;101561.72;5076974;27;45445;-47
2023/08/08 07:55:19;;;;;;;;;1.00;1.00;;;;;41.89;23.03;101550.81;5084929;27;65462;-50
2023/08/08 07:57:45;;;;;;;;;1.00;0.75;;;;;42.60;22.76;101549.47;5081556;27;45434;-46
2023/08/08 08:00:13;;;;;;;;;0.25;0.25;;;;;43.66;21.49;101548.19;5093356;27;45362;-47
2023/08/08 08:02:42;;;;;;;;;0.80;0.80;;;;;44.11;19.83;101548.38;5088961;27;45362;-48
2023/08/08 08:05:08;;;;;;;;;0.00;0.00;;;;;44.01;18.78;101546.44;5087788;27;45719;-46
2023/08/08 08:07:35;;;;;;;;;0.00;0.00;;;;;44.25;21.03;101554.19;5066530;27;45425;-47
2023/08/08 08:10:01;;;;;;;;;2.00;0.25;;;;;43.62;19.66;101545.09;5088894;27;47159;-48
2023/08/08 08:12:27;;;;;;;;;0.00;0.00;;;;;42.22;19.33;101545.97;5065320;28;45478;-51
2023/08/08 08:14:52;;;;;;;;;0.75;0.75;;;;;41.98;20.36;101548.34;5086269;27;66147;-47
2023/08/08 08:17:17;;;;;;;;;0.00;0.00;;;;;42.12;20.22;101551.50;5082476;27;69672;-48
2023/08/08 08:19:43;;;;;;;;;0.00;0.00;;;;;42.73;20.06;101548.13;5086497;27;68754;-47
2023/08/08 08:22:08;;;;;;;;;0.75;0.25;;;;;44.03;18.21;101541.41;5093802;27;60825;-47
2023/08/08 08:24:34;;;;;;;;;0.75;0.00;;;;;44.81;17.06;101539.06;5094088;27;46643;-50
2023/08/08 08:26:59;;;;;;;;;1.25;0.00;;;;;45.38;17.58;101541.44;5091189;27;45430;-50
2023/08/08 08:29:24;;;;;;;;;1.50;0.00;;;;;46.22;17.21;101541.13;5078514;27;58220;-50
2023/08/08 08:31:50;;;;;;;;;1.00;0.00;;;;;46.00;16.18;101546.44;5095887;27;45419;-51
2023/08/08 08:34:15;;;;;;;;;0.00;0.00;;;;;46.33;15.69;101539.03;5073801;27;45502;-51
2023/08/08 08:36:40;;;;;;;;;1.25;0.00;;;;;46.34;16.41;101545.50;5069657;27;57454;-48
2023/08/08 08:39:06;;;;;;;;;0.00;0.00;;;;;45.73;16.89;101539.44;5073665;27;70527;-50
2023/08/08 08:41:31;;;;;;;;;0.00;0.00;;;;;45.24;16.97;101549.72;5082641;27;45378;-46
2023/08/08 08:43:57;;;;;;;;;0.00;0.00;;;;;43.68;16.42;101547.91;5095576;27;45475;-51
2023/08/08 08:46:25;;;;;;;;;0.00;0.00;;;;;42.09;17.37;101552.06;5096951;27;63386;-48
2023/08/08 08:48:51;;;;;;;;;0.75;0.00;;;;;41.62;18.37;101554.53;5066940;28;45513;-47
2023/08/08 08:51:18;;;;;;;;;1.80;0.00;;;;;41.38;18.63;101548.44;5062007;27;45450;-48
2023/08/08 08:53:46;;;;;;;;;2.00;0.00;;;;;42.48;18.66;101546.09;5089252;27;45442;-47
2023/08/08 08:56:12;;;;;;;;;1.75;0.50;;;;;44.15;16.70;101541.06;5072726;27;45441;-47
2023/08/08 08:58:37;;;;;;;;;0.00;0.00;;;;;44.74;17.08;101542.19;5063111;27;46207;-46
2023/08/08 09:01:02;;;;;;;;;2.00;0.00;;;;;45.05;17.57;101543.97;5090643;27;49264;-48
2023/08/08 09:03:28;;;;;;;;;0.00;0.00;;;;;45.68;16.38;101550.72;5081547;27;54797;-46
2023/08/08 09:05:54;;;;;;;;;0.00;0.00;;;;;46.37;15.09;101550.50;5065917;27;57325;-47
2023/08/08 09:08:20;;;;;;;;;0.00;0.00;;;;;45.97;16.00;101538.63;5073732;27;46037;-49
2023/08/08 09:10:45;;;;;;;;;1.00;0.00;;;;;43.91;16.12;101536.13;5092027;27;45414;-49
2023/08/08 09:13:10;;;;;;;;;1.25;0.00;;;;;43.49;16.49;101536.44;5089890;27;64899;-49
2023/08/08 09:15:36;;;;;;;;;1.00;0.00;;;;;43.46;17.87;101532.25;5096844;27;53805;-50
2023/08/08 09:18:02;;;;;;;;;1.75;0.00;;;;;43.07;16.72;101530.81;5094350;27;50429;-50
2023/08/08 09:20:30;;;;;;;;;3.20;2.40;;;;;41.83;17.63;101547.16;5060055;27;45398;-46
2023/08/08 09:22:56;;;;;;;;;0.00;0.00;;;;;40.67;18.37;101535.50;5095703;27;45523;-47
2023/08/08 09:25:23;;;;;;;;;0.00;0.00;;;;;38.88;19.29;101538.88;5088034;27;45334;-49
2023/08/08 09:27:48;;;;;;;;;0.00;0.00;;;;;38.05;19.98;101539.06;5089656;27;46362;-47
2023/08/08 09:30:15;;;;;;;;;1.00;1.00;;;;;39.12;19.85;101533.19;5069981;28;45558;-49
2023/08/08 09:32:40;;;;;;;;;0.00;0.00;;;;;39.98;19.08;101540.44;5084902;27;45439;-51
2023/08/08 09:35:09;;;;;;;;;0.00;0.00;;;;;38.98;19.73;101527.13;5075984;27;45402;-52
2023/08/08 09:37:35;;;;;;;;;0.00;0.00;;;;;38.61;19.72;101526.66;5087763;27;46857;-56
2023/08/08 09:40:07;;;;;;;;;0.00;0.00;;;;;39.39;20.25;101518.66;5083647;27;45349;-56
2023/08/08 09:42:33;;;;;;;;;0.20;0.20;;;;;40.85;18.55;101507.25;5083759;27;45421;-58
2023/08/08 09:44:59;;;;;;;;;0.25;0.25;;;;;42.18;18.49;101518.81;5080981;27;45391;-58
2023/08/08 09:47:30;;;;;;;;;0.25;0.25;;;;;43.45;17.60;101508.19;5081465;27;45219;-58
2023/08/08 09:49:58;;;;;;;;;2.00;2.00;;;;;44.05;16.69;101515.91;5092070;27;45578;-58
2023/08/08 09:52:25;;;;;;;;;1.20;1.20;;;;;44.84;16.09;101504.00;5098297;27;45524;-58
2023/08/08 09:54:50;;;;;;;;;2.00;2.00;;;;;45.51;15.91;101507.09;5082622;27;45743;-58
2023/08/08 09:57:16;;;;;;;;;2.00;0.00;;;;;45.99;14.83;101505.47;5076229;28;46263;-58
2023/08/08 09:59:42;;;;;;;;;1.40;1.00;;;;;46.50;15.65;101510.38;5081658;28;45423;-58
2023/08/08 10:02:13;;;;;;;;;0.50;0.50;;;;;46.92;14.34;101499.34;5097685;27;45402;-58
2023/08/08 10:04:38;;;;;;;;;1.00;1.00;;;;;47.30;13.98;101492.81;5101158;27;46210;-58
2023/08/08 10:07:04;;;;;;;;;2.75;2.25;;;;;47.14;13.92;101495.06;5072853;28;57230;-58
2023/08/08 10:09:29;;;;;;;;;1.00;0.00;;;;;47.03;13.41;101503.66;5082797;27;45281;-58
2023/08/08 10:11:55;;;;;;;;;2.00;0.75;;;;;46.91;14.17;101488.41;5083981;27;66946;-58
2023/08/08 10:14:28;;;;;;;;;1.50;0.50;;;;;47.03;14.58;101489.59;5100817;27;45393;-58
2023/08/08 10:16:55;;;;;;;;;0.00;0.00;;;;;45.87;14.58;101492.63;5075167;28;46057;-58
2023/08/08 10:19:22;;;;;;;;;0.00;0.00;;;;;44.29;14.90;101485.25;5074502;27;45754;-58
2023/08/08 10:21:47;;;;;;;;;0.25;0.25;;;;;43.37;15.58;101491.97;5063318;28;45391;-58
2023/08/08 10:24:13;;;;;;;;;0.50;0.50;;;;;41.42;16.49;101485.47;5062166;28;55246;-57
2023/08/08 10:27:00;;;;;;;;;1.00;1.00;;;;;40.28;18.11;101482.66;5079212;28;46795;-58
2023/08/08 10:29:26;;;;;;;;;0.20;0.20;;;;;39.99;18.54;101486.44;5066096;27;45761;-58
2023/08/08 10:31:59;;;;;;;;;1.00;1.00;;;;;39.40;18.45;101477.78;5101831;27;45349;-57
2023/08/08 10:34:38;;;;;;;;;1.00;1.00;;;;;38.88;19.28;101482.47;5090017;27;45441;-58
2023/08/08 10:37:05;;;;;;;;;0.50;0.50;;;;;39.25;18.09;101483.94;5073974;28;47475;-58
2023/08/08 10:39:31;;;;;;;;;0.25;0.25;;;;;39.64;18.89;101481.22;5089969;27;45615;-57
2023/08/08 10:42:01;;;;;;;;;0.00;0.00;;;;;40.25;18.42;101489.59;5089459;27;45360;-58
2023/08/08 10:44:26;;;;;;;;;1.00;0.50;;;;;40.43;18.50;101473.59;5063365;27;45678;-58
2023/08/08 10:46:53;;;;;;;;;0.00;0.00;;;;;39.48;19.38;101482.91;5088881;27;46138;-58
2023/08/08 10:49:19;;;;;;;;;2.00;0.20;;;;;38.65;19.29;101473.13;5096078;27;45675;-57
2023/08/08 10:51:46;;;;;;;;;0.50;0.50;;;;;37.73;20.13;101478.41;5087752;27;45381;-58
2023/08/08 10:54:27;;;;;;;;;0.50;0.50;;;;;36.96;20.52;101473.75;5095358;27;45969;-58
2023/08/08 10:56:56;;;;;;;;;1.25;1.00;;;;;36.31;20.97;101475.25;5093668;27;45397;-58
2023/08/08 10:59:42;;;;;;;;;3.00;3.00;;;;;36.20;21.59;101476.88;5090453;27;45351;-58
2023/08/08 11:02:07;;;;;;;;;0.25;0.25;;;;;36.31;22.09;101478.03;5089163;27;64108;-57
2023/08/08 11:04:34;;;;;;;;;0.25;0.25;;;;;36.09;21.88;101463.81;5071086;27;64813;-57
2023/08/08 11:07:00;;;;;;;;;1.25;0.75;;;;;35.37;22.56;101475.38;5090451;27;46589;-57
2023/08/08 11:09:26;;;;;;;;;2.00;1.00;;;;;35.25;22.39;101476.13;5084251;27;45505;-57
2023/08/08 11:11:52;;;;;;;;;1.00;0.00;;;;;35.43;22.71;101461.50;5088003;27;45427;-58
2023/08/08 11:14:19;;;;;;;;;0.75;0.75;;;;;35.76;22.06;101463.09;5093622;27;45799;-57
2023/08/08 11:16:46;;;;;;;;;0.50;0.50;;;;;36.06;21.80;101459.59;5085703;27;47871;-60
2023/08/08 11:19:12;;;;;;;;;1.25;0.00;;;;;35.73;21.92;101463.53;5087125;27;45378;-58